ZBAA/PEK METAR and TAF weather

Enter ICAO airport designator
Station Type Date Time Source
ZBAA METAR 2020/11/25 22:30 UTC NOAA

ZBAA 252230Z 16001MPS CAVOK M04/M07 Q1034 NOSIG


Station Type Date Time Source
ZBAA Decoded METAR 2020/11/25 22:30 UTC NOAA

Beijing, China (ZBAA) 39-56N 116-17E 55M
Nov 25, 2020 - 05:30 PM EST / 2020.11.25 2230 UTC
Wind: from the SSE (160 degrees) at 2 MPH (2 KT):0
Visibility: greater than 7 mile(s):0
Temperature: 24 F (-4 C)
Dew Point: 19 F (-7 C)
Relative Humidity: 79%
Pressure (altimeter): 30.53 in. Hg (1034 hPa)
ob: ZBAA 252230Z 16001MPS CAVOK M04/M07 Q1034 NOSIG
cycle: 22

Station Type Date Time Source
ZBAA TAF 2020/11/25 18:03 UTC NOAA

TAF TAF ZBAA 251503Z 2518/2618 16004MPS 5000 BR NSC TX06/2607Z TNM03/2521Z

Example: see airport list